createdAt,value
2019-06-07T00:00:32.171Z,100655.68
2019-06-07T00:02:46.961Z,100654.55
2019-06-07T00:05:21.789Z,100658.78
2019-06-07T00:08:07.804Z,100656.17
2019-06-07T00:10:45.660Z,100657.63
2019-06-07T00:13:21.071Z,100664.64
2019-06-07T00:15:53.236Z,100673.78
2019-06-07T00:18:30.470Z,100660.81
2019-06-07T00:21:02.713Z,100664.09
2019-06-07T00:23:34.713Z,100666.80
2019-06-07T00:26:06.585Z,100659.19
2019-06-07T00:28:37.999Z,100651.41
2019-06-07T00:31:11.542Z,100649.16
2019-06-07T00:33:43.251Z,100656.20
2019-06-07T00:36:17.583Z,100656.95
2019-06-07T00:38:47.776Z,100651.41
2019-06-07T00:41:23.794Z,100653.50
2019-06-07T00:43:56.034Z,100655.25
2019-06-07T00:46:29.254Z,100662.61
2019-06-07T00:49:00.832Z,100671.22
2019-06-07T00:51:49.887Z,100668.81
2019-06-07T00:54:14.602Z,100665.69
2019-06-07T00:56:44.302Z,100665.92
2019-06-07T00:59:19.136Z,100667.26
2019-06-07T01:01:50.500Z,100677.67
2019-06-07T01:04:27.269Z,100681.67
2019-06-07T01:07:01.801Z,100669.66
2019-06-07T01:09:34.940Z,100666.06
2019-06-07T01:12:06.621Z,100669.40
2019-06-07T01:14:38.921Z,100670.56
2019-06-07T01:17:39.859Z,100668.88
2019-06-07T01:19:58.688Z,100670.16
2019-06-07T01:22:30.145Z,100663.75
2019-06-07T01:25:03.487Z,100663.59
2019-06-07T01:27:35.770Z,100661.63
2019-06-07T01:30:09.139Z,100666.09
2019-06-07T01:32:43.170Z,100664.29
2019-06-07T01:35:21.414Z,100664.61
2019-06-07T01:37:53.873Z,100668.95
2019-06-07T01:40:31.926Z,100668.70
2019-06-07T01:43:00.298Z,100664.93
2019-06-07T01:45:31.654Z,100662.66
2019-06-07T01:48:06.523Z,100654.31
2019-06-07T01:50:37.906Z,100645.03
2019-06-07T01:53:11.710Z,100648.97
2019-06-07T01:55:44.025Z,100645.58
2019-06-07T01:58:17.103Z,100628.00
2019-06-07T02:00:49.259Z,100613.65
2019-06-07T02:03:29.372Z,100606.64
2019-06-07T02:06:02.413Z,100585.73
2019-06-07T02:08:41.838Z,100579.44
2019-06-07T02:11:13.454Z,100609.41
2019-06-07T02:13:44.966Z,100618.49
2019-06-07T02:16:16.378Z,100625.20
2019-06-07T02:19:01.221Z,100632.42
2019-06-07T02:21:24.707Z,100636.11
2019-06-07T02:23:57.936Z,100646.82
2019-06-07T02:26:32.579Z,100647.69
2019-06-07T02:29:05.030Z,100672.49
2019-06-07T02:31:42.102Z,100685.93
2019-06-07T02:34:15.722Z,100692.61
2019-06-07T02:36:50.362Z,100696.98
2019-06-07T02:39:30.894Z,100704.38
2019-06-07T02:41:59.989Z,100709.83
2019-06-07T02:44:44.298Z,100708.08
2019-06-07T02:47:35.948Z,100705.47
2019-06-07T02:49:57.459Z,100696.09
2019-06-07T02:52:46.463Z,100690.99
2019-06-07T02:56:10.811Z,100697.88
2019-06-07T02:58:05.918Z,100699.22
2019-06-07T03:01:06.749Z,100696.56
2019-06-07T03:03:24.506Z,100699.31
2019-06-07T03:06:03.132Z,100711.11
2019-06-07T03:08:47.395Z,100713.48
2019-06-07T03:11:28.225Z,100714.70
2019-06-07T03:14:01.629Z,100723.44
2019-06-07T03:16:40.047Z,100729.30
2019-06-07T03:22:19.906Z,100716.52
2019-06-07T03:24:54.459Z,100720.08
2019-06-07T03:27:36.200Z,100727.46
2019-06-07T03:30:00.245Z,100725.06
2019-06-07T03:32:36.863Z,100723.10
2019-06-07T03:35:06.580Z,100717.63
2019-06-07T03:37:42.295Z,100719.25
2019-06-07T03:40:11.401Z,100720.12
2019-06-07T03:42:43.526Z,100719.00
2019-06-07T03:45:15.798Z,100718.83
2019-06-07T03:47:47.830Z,100711.61
2019-06-07T03:50:19.782Z,100713.33
2019-06-07T03:52:51.859Z,100717.22
2019-06-07T03:55:24.287Z,100726.82
2019-06-07T04:00:31.168Z,100725.75
2019-06-07T04:03:32.376Z,100730.62
2019-06-07T04:05:53.741Z,100743.62
2019-06-07T04:08:33.540Z,100746.75
2019-06-07T04:11:16.803Z,100744.69
2019-06-07T04:13:54.443Z,100739.03
2019-06-07T04:16:40.431Z,100737.61
2019-06-07T04:19:13.330Z,100729.48
2019-06-07T04:21:57.951Z,100723.86
2019-06-07T04:24:36.579Z,100712.66
2019-06-07T04:27:10.724Z,100713.16
2019-06-07T04:30:06.633Z,100722.80
2019-06-07T04:32:31.660Z,100734.69
2019-06-07T04:35:13.069Z,100744.36
2019-06-07T04:38:01.761Z,100725.05
2019-06-07T04:40:42.797Z,100716.98
2019-06-07T04:43:21.824Z,100715.90
2019-06-07T04:45:56.209Z,100716.64
2019-06-07T04:48:54.290Z,100728.33
2019-06-07T04:51:37.143Z,100728.05
2019-06-07T04:54:19.104Z,100728.52
2019-06-07T04:57:16.138Z,100730.48
2019-06-07T05:00:22.618Z,100736.13
2019-06-07T05:02:29.549Z,100739.39
2019-06-07T05:05:06.551Z,100739.61
2019-06-07T05:07:45.941Z,100733.62
2019-06-07T05:10:26.776Z,100732.44
2019-06-07T05:13:10.877Z,100725.83
2019-06-07T05:15:51.995Z,100728.97
2019-06-07T05:18:33.712Z,100721.87
2019-06-07T05:21:22.948Z,100733.16
2019-06-07T05:24:12.954Z,100740.77
2019-06-07T05:26:55.505Z,100744.52
2019-06-07T05:29:44.387Z,100743.16
2019-06-07T05:32:19.125Z,100744.30
2019-06-07T05:35:03.567Z,100746.17
2019-06-07T05:37:50.295Z,100746.55
2019-06-07T05:40:48.830Z,100748.38
2019-06-07T05:43:39.219Z,100746.02
2019-06-07T05:46:24.638Z,100748.38
2019-06-07T05:49:10.336Z,100757.00
2019-06-07T05:51:53.476Z,100752.41
2019-06-07T05:54:45.528Z,100751.46
2019-06-07T05:57:36.940Z,100751.45
2019-06-07T06:00:15.280Z,100749.91
2019-06-07T06:03:05.721Z,100748.92
2019-06-07T06:05:54.619Z,100750.29
2019-06-07T06:08:50.952Z,100754.95
2019-06-07T06:11:43.350Z,100752.66
2019-06-07T06:14:47.043Z,100749.34
2019-06-07T06:17:41.385Z,100749.53
2019-06-07T06:20:54.482Z,100757.30
2019-06-07T06:23:01.652Z,100765.95
2019-06-07T06:25:34.404Z,100768.80
2019-06-07T06:28:12.292Z,100771.48
2019-06-07T06:30:41.218Z,100770.50
2019-06-07T06:33:30.448Z,100758.40
2019-06-07T06:35:49.419Z,100765.84
2019-06-07T06:38:21.068Z,100760.42
2019-06-07T06:41:11.725Z,100760.06
2019-06-07T06:43:25.503Z,100757.11
2019-06-07T06:45:57.583Z,100762.78
2019-06-07T06:48:29.750Z,100762.20
2019-06-07T06:51:01.901Z,100763.95
2019-06-07T06:53:34.353Z,100758.24
2019-06-07T06:56:06.412Z,100762.02
2019-06-07T06:59:21.531Z,100761.19
2019-06-07T07:01:12.371Z,100764.11
2019-06-07T07:04:00.809Z,100759.89
2019-06-07T07:06:26.921Z,100762.32
2019-06-07T07:08:53.724Z,100763.57
2019-06-07T07:11:25.124Z,100760.77
2019-06-07T07:13:57.075Z,100758.00
2019-06-07T07:16:28.508Z,100772.41
2019-06-07T07:19:00.424Z,100772.06
2019-06-07T07:21:31.838Z,100766.05
2019-06-07T07:24:20.266Z,100767.89
2019-06-07T07:26:36.916Z,100769.34
2019-06-07T07:29:08.947Z,100763.91
2019-06-07T07:31:40.983Z,100764.94
2019-06-07T07:41:21.523Z,100754.94
2019-06-07T07:48:08.244Z,100591.51
2019-06-07T07:50:26.589Z,100756.55
2019-06-07T07:53:00.682Z,100754.66
2019-06-07T07:55:32.547Z,100755.69
2019-06-07T07:58:04.675Z,100758.64
2019-06-07T08:01:07.744Z,100753.16
2019-06-07T08:03:28.023Z,100747.91
2019-06-07T08:06:00.235Z,100762.36
2019-06-07T08:08:31.687Z,100757.12
2019-06-07T08:11:02.960Z,100757.95
2019-06-07T08:13:35.056Z,100751.34
2019-06-07T08:16:12.419Z,100753.53
2019-06-07T08:18:39.476Z,100750.25
2019-06-07T08:21:24.363Z,100750.60
2019-06-07T08:23:47.397Z,100754.08
2019-06-07T08:26:18.882Z,100750.60
2019-06-07T08:28:55.890Z,100757.16
2019-06-07T08:31:24.832Z,100757.44
2019-06-07T08:33:58.909Z,100750.02
2019-06-07T08:36:41.175Z,100747.32
2019-06-07T08:39:07.522Z,100748.86
2019-06-07T08:41:37.739Z,100753.46
2019-06-07T08:44:23.202Z,100759.16
2019-06-07T08:46:44.003Z,100761.22
2019-06-07T08:49:16.044Z,100773.16
2019-06-07T08:51:48.176Z,100768.45
2019-06-07T08:54:23.204Z,100767.50
2019-06-07T08:57:06.424Z,100770.66
2019-06-07T08:59:27.848Z,100773.56
2019-06-07T09:02:06.589Z,100769.11
2019-06-07T09:04:34.762Z,100769.04
2019-06-07T09:07:18.797Z,100761.09
2019-06-07T09:09:39.973Z,100762.78
2019-06-07T09:12:11.784Z,100768.52
2019-06-07T09:14:59.938Z,100764.51
2019-06-07T09:17:17.099Z,100759.86
2019-06-07T09:19:49.106Z,100765.45
2019-06-07T09:22:21.347Z,100761.59
2019-06-07T09:25:00.200Z,100763.34
2019-06-07T09:27:28.651Z,100763.11
2019-06-07T09:30:07.623Z,100752.50
2019-06-07T09:32:35.198Z,100752.30
2019-06-07T09:35:12.378Z,100755.48
2019-06-07T09:40:27.535Z,100753.33
2019-06-07T09:43:47.484Z,100758.09
2019-06-07T09:45:31.970Z,100751.63
2019-06-07T09:48:13.874Z,100744.30
2019-06-07T09:50:40.804Z,100744.25
2019-06-07T09:53:21.678Z,100750.11
2019-06-07T09:55:47.071Z,100748.28
2019-06-07T09:58:50.488Z,100743.42
2019-06-07T10:00:52.459Z,100738.88
2019-06-07T10:03:26.322Z,100734.86
2019-06-07T10:05:59.724Z,100740.38
2019-06-07T10:09:42.321Z,100735.78
2019-06-07T10:11:09.156Z,100734.41
2019-06-07T10:13:42.938Z,100732.86
2019-06-07T10:16:14.986Z,100729.63
2019-06-07T10:18:46.375Z,100726.78
2019-06-07T10:21:18.602Z,100724.56
2019-06-07T10:23:56.311Z,100726.06
2019-06-07T10:26:33.670Z,100721.00
2019-06-07T10:29:06.794Z,100724.85
2019-06-07T10:31:40.807Z,100726.34
2019-06-07T10:34:16.006Z,100715.09
2019-06-07T10:36:51.421Z,100718.73
2019-06-07T10:39:26.866Z,100717.75
2019-06-07T10:42:13.378Z,100719.16
2019-06-07T10:44:46.168Z,100707.14
2019-06-07T10:47:18.319Z,100708.92
2019-06-07T10:49:50.374Z,100712.13
2019-06-07T10:52:32.710Z,100712.77
2019-06-07T10:55:05.059Z,100712.52
2019-06-07T10:57:37.322Z,100709.52
2019-06-07T11:00:11.780Z,100699.48
2019-06-07T11:02:49.954Z,100701.42
2019-06-07T11:05:22.927Z,100696.06
2019-06-07T11:07:55.522Z,100689.23
2019-06-07T11:10:30.814Z,100701.66
2019-06-07T11:13:04.223Z,100689.41
2019-06-07T11:15:35.705Z,100696.67
2019-06-07T11:18:10.254Z,100686.16
2019-06-07T11:20:48.108Z,100690.42
2019-06-07T11:23:20.838Z,100687.66
2019-06-07T11:26:08.400Z,100694.19
2019-06-07T11:29:19.203Z,100685.52
2019-06-07T11:32:02.721Z,100683.38
2019-06-07T11:34:36.578Z,100675.95
2019-06-07T11:41:05.101Z,100671.00
2019-06-07T11:43:54.745Z,100664.47
2019-06-07T11:46:28.065Z,100661.06
2019-06-07T11:52:33.537Z,100659.69
2019-06-07T11:55:09.354Z,100648.08
2019-06-07T11:57:43.279Z,100643.84
2019-06-07T12:00:18.750Z,100641.19
2019-06-07T12:02:51.035Z,100638.31
2019-06-07T12:05:22.561Z,100632.52
2019-06-07T12:07:57.183Z,100630.88
2019-06-07T12:10:41.801Z,100620.39
2019-06-07T12:13:03.080Z,100624.32
2019-06-07T12:15:35.429Z,100621.50
2019-06-07T12:18:06.989Z,100612.68
2019-06-07T12:20:39.364Z,100618.69
2019-06-07T12:23:12.026Z,100612.16
2019-06-07T12:25:43.383Z,100611.70
2019-06-07T12:28:14.845Z,100603.16
2019-06-07T12:30:47.009Z,100599.75
2019-06-07T12:33:19.710Z,100601.28
2019-06-07T12:39:46.344Z,100599.47
2019-06-07T12:42:45.427Z,100595.66
2019-06-07T12:45:40.161Z,100594.05
2019-06-07T12:47:55.333Z,100590.95
2019-06-07T12:50:41.740Z,100588.23
2019-06-07T12:52:59.914Z,100589.54
2019-06-07T12:55:31.321Z,100579.18
2019-06-07T12:58:02.700Z,100580.02
2019-06-07T13:00:34.020Z,100592.40
2019-06-07T13:03:06.659Z,100581.86
2019-06-07T13:05:39.817Z,100586.31
2019-06-07T13:08:12.291Z,100577.70
2019-06-07T13:10:43.906Z,100577.22
2019-06-07T13:13:15.788Z,100574.41
2019-06-07T13:15:48.053Z,100571.20
2019-06-07T13:18:21.620Z,100564.80
2019-06-07T13:20:55.484Z,100566.66
2019-06-07T13:23:29.013Z,100566.55
2019-06-07T13:26:45.806Z,100561.48
2019-06-07T13:29:52.013Z,100560.45
2019-06-07T14:27:31.912Z,100510.95
2019-06-07T14:30:57.879Z,100516.57
2019-06-07T14:33:47.352Z,100504.59
2019-06-07T14:37:04.229Z,100490.08
2019-06-07T14:41:29.651Z,100498.22
2019-06-07T14:45:05.739Z,100497.84
2019-06-07T14:48:01.980Z,100494.91
2019-06-07T14:51:04.885Z,100495.80
2019-06-07T14:54:21.426Z,100490.55
2019-06-07T14:57:10.804Z,100488.61
2019-06-07T15:05:01.917Z,100489.62
2019-06-07T17:18:25.498Z,100439.26
2019-06-07T17:20:59.527Z,100438.23
2019-06-07T17:23:31.599Z,100432.67
2019-06-07T17:26:03.944Z,100436.55
2019-06-07T17:28:36.032Z,100432.11
2019-06-07T17:31:08.020Z,100424.03
2019-06-07T17:33:40.083Z,100426.81
2019-06-07T17:36:12.197Z,100428.60
2019-06-07T17:38:44.550Z,100427.84
2019-06-07T17:41:16.692Z,100432.77
2019-06-07T17:43:57.802Z,100439.08
2019-06-07T17:46:22.662Z,100433.66
2019-06-07T17:48:54.827Z,100430.22
2019-06-07T17:51:26.971Z,100431.42
2019-06-07T17:53:59.274Z,100426.02
2019-06-07T17:56:31.534Z,100429.76
2019-06-07T17:59:03.587Z,100427.30
2019-06-07T18:01:41.560Z,100428.04
2019-06-07T18:04:11.778Z,100433.63
2019-06-07T18:06:45.395Z,100427.17
2019-06-07T18:09:17.484Z,100425.52
2019-06-07T18:11:49.999Z,100419.03
2019-06-07T18:14:22.494Z,100423.03
2019-06-07T18:16:54.895Z,100418.60
2019-06-07T18:19:27.090Z,100414.61
2019-06-07T18:21:59.267Z,100416.61
2019-06-07T18:24:31.539Z,100418.23
2019-06-07T18:27:06.989Z,100412.95
2019-06-07T18:29:37.714Z,100408.44
2019-06-07T18:32:13.355Z,100419.02
2019-06-07T18:34:44.035Z,100415.35
2019-06-07T18:37:16.530Z,100418.80
2019-06-07T18:42:56.999Z,100419.73
2019-06-07T18:45:30.771Z,100422.86
2019-06-07T18:48:03.034Z,100421.39
2019-06-07T18:50:36.762Z,100419.47
2019-06-07T18:53:08.195Z,100429.30
2019-06-07T18:55:40.696Z,100430.94
2019-06-07T18:58:12.336Z,100435.10
2019-06-07T19:00:44.607Z,100424.23
2019-06-07T19:03:18.512Z,100428.66
2019-06-07T19:05:51.981Z,100430.69
2019-06-07T19:08:25.172Z,100423.48
2019-06-07T19:11:00.769Z,100417.61
2019-06-07T19:13:38.237Z,100419.21
2019-06-07T19:16:27.362Z,100421.85
2019-06-07T19:18:57.911Z,100428.06
2019-06-07T19:21:33.877Z,100428.11
2019-06-07T19:24:05.454Z,100425.53
2019-06-07T19:26:38.166Z,100431.06
2019-06-07T19:29:12.671Z,100425.37
2019-06-07T19:31:44.133Z,100429.18
2019-06-07T19:34:15.471Z,100432.94
2019-06-07T19:36:49.010Z,100432.08
2019-06-07T19:39:21.429Z,100429.89
2019-06-07T19:41:53.974Z,100427.70
2019-06-07T19:44:25.495Z,100426.45
2019-06-07T19:46:58.498Z,100434.48
2019-06-07T19:49:30.797Z,100435.16
2019-06-07T19:52:03.305Z,100434.13
2019-06-07T19:54:35.512Z,100440.13
2019-06-07T19:57:07.577Z,100435.03
2019-06-07T19:59:38.949Z,100436.09
2019-06-07T20:02:11.025Z,100432.50
2019-06-07T20:04:43.040Z,100433.17
2019-06-07T20:07:20.039Z,100430.14
2019-06-07T20:09:54.455Z,100430.08
2019-06-07T20:12:35.650Z,100434.47
2019-06-07T20:15:49.142Z,100440.16
2019-06-07T20:18:34.343Z,100439.70
2019-06-07T20:21:58.782Z,100444.37
2019-06-07T20:28:09.422Z,100442.02
2019-06-07T20:31:06.397Z,100439.80
2019-06-07T20:37:45.146Z,100435.73
2019-06-07T20:40:34.513Z,100434.88
2019-06-07T20:43:18.772Z,100442.66
2019-06-07T20:45:46.786Z,100436.59
2019-06-07T20:48:23.425Z,100451.55
2019-06-07T20:51:37.369Z,100448.22
2019-06-07T20:54:09.190Z,100439.47
2019-06-07T20:56:40.805Z,100431.70
2019-06-07T20:59:14.773Z,100430.24
2019-06-07T21:01:50.780Z,100429.67
2019-06-07T21:04:22.809Z,100428.24
2019-06-07T21:10:12.206Z,100430.63
2019-06-07T21:12:44.372Z,100420.62
2019-06-07T21:15:15.992Z,100416.23
2019-06-07T21:17:47.474Z,100423.13
2019-06-07T21:20:19.143Z,100419.18
2019-06-07T21:22:56.260Z,100427.39
2019-06-07T21:25:24.765Z,100423.27
2019-06-07T21:27:56.306Z,100424.13
2019-06-07T21:30:49.169Z,100415.95
2019-06-07T21:33:20.340Z,100415.73
2019-06-07T21:35:52.464Z,100413.34
2019-06-07T21:38:24.169Z,100413.70
2019-06-07T21:40:55.445Z,100418.02
2019-06-07T21:43:31.536Z,100413.30
2019-06-07T21:46:07.291Z,100418.28
2019-06-07T21:48:37.440Z,100417.39
2019-06-07T21:51:08.849Z,100417.31
2019-06-07T21:53:42.200Z,100408.59
2019-06-07T21:56:13.594Z,100410.81
2019-06-07T21:58:44.920Z,100411.09
2019-06-07T22:01:26.024Z,100412.91
2019-06-07T22:03:57.392Z,100409.05
2019-06-07T22:06:28.665Z,100413.52
2019-06-07T22:09:00.065Z,100415.14
2019-06-07T22:11:32.053Z,100417.34
2019-06-07T22:14:04.465Z,100419.09
2019-06-07T22:16:35.856Z,100424.30
2019-06-07T22:19:08.672Z,100425.08
2019-06-07T22:21:40.158Z,100432.03
2019-06-07T22:24:13.093Z,100433.41
2019-06-07T22:26:44.520Z,100441.09
2019-06-07T22:29:15.868Z,100440.59
2019-06-07T22:31:47.804Z,100434.59
2019-06-07T22:34:19.843Z,100435.19
2019-06-07T22:36:51.888Z,100431.99
2019-06-07T22:39:24.062Z,100429.59
2019-06-07T22:41:57.474Z,100434.83
2019-06-07T22:44:28.397Z,100439.91
2019-06-07T22:47:00.748Z,100452.39
2019-06-07T22:49:32.132Z,100445.45
2019-06-07T22:52:08.899Z,100438.44
2019-06-07T22:54:37.605Z,100441.31
2019-06-07T22:57:18.853Z,100430.91
2019-06-07T22:59:50.262Z,100437.00
2019-06-07T23:02:21.594Z,100440.95
2019-06-07T23:04:53.624Z,100437.64
2019-06-07T23:07:25.747Z,100437.48
2019-06-07T23:10:00.709Z,100439.17
2019-06-07T23:12:41.178Z,100249.42
2019-06-07T23:15:15.884Z,100205.95
2019-06-07T23:17:47.855Z,100425.21
2019-06-07T23:20:20.147Z,100422.22
2019-06-07T23:22:51.457Z,100422.63
2019-06-07T23:25:24.687Z,100423.25
2019-06-07T23:28:02.117Z,100427.04
2019-06-07T23:30:35.479Z,100417.86
2019-06-07T23:33:07.445Z,100415.98
2019-06-07T23:35:39.400Z,100419.95
2019-06-07T23:38:11.368Z,100425.86
2019-06-07T23:40:43.371Z,100425.46
2019-06-07T23:43:21.831Z,100424.92
2019-06-07T23:45:53.143Z,100429.81
2019-06-07T23:48:24.445Z,100422.19
2019-06-07T23:50:55.675Z,100426.09
2019-06-07T23:53:27.763Z,100436.12
2019-06-07T23:56:01.476Z,100435.72
2019-06-07T23:58:32.838Z,100435.00
